Time;durP1;ratioP1;P1;durP2;ratioP2;P2;SDS_P1;SDS_P2;PMS_P1;PMS_P2;Temp;Humidity;BMP_temperature;BMP_pressure;BME280_temperature;BME280_humidity;BME280_pressure;Samples;Min_cycle;Max_cycle;Signal;HPM_P1;HPM_P2
2022/09/05 00:02:01;;;;;;;4.68;2.13;;;;;;;;;;5096282;28;20024;-81
2022/09/05 00:04:33;;;;;;;10.70;2.95;;;;;;;;;;5096030;28;20020;-81
2022/09/05 00:07:16;;;;;;;4.25;2.30;;;;;;;;;;5096207;28;20028;-81
2022/09/05 00:09:50;;;;;;;6.03;2.40;;;;;;;;;;5096026;28;20085;-81
2022/09/05 00:12:17;;;;;;;4.88;2.20;;;;;;;;;;5095765;28;20397;-81
2022/09/05 00:14:43;;;;;;;8.55;2.45;;;;;;;;;;5095904;28;20043;-81
2022/09/05 00:17:08;;;;;;;4.10;2.30;;;;;;;;;;5095826;28;20462;-81
2022/09/05 00:19:37;;;;;;;7.15;2.58;;;;;;;;;;5101565;28;20031;-81
2022/09/05 00:22:03;;;;;;;8.45;2.45;;;;;;;;;;5116183;28;20094;-81
2022/09/05 00:24:39;;;;;;;3.50;2.33;;;;;;;;;;5097745;28;20076;-81
2022/09/05 00:27:13;;;;;;;7.05;2.40;;;;;;;;;;5116090;28;20023;-81
2022/09/05 00:29:39;;;;;;;6.60;2.40;;;;;;;;;;5115983;28;20477;-81
2022/09/05 00:32:24;;;;;;;6.95;2.40;;;;;;;;;;5116115;28;20027;-81
2022/09/05 00:35:09;;;;;;;9.38;2.50;;;;;;;;;;5115940;28;20024;-81
2022/09/05 00:37:38;;;;;;;5.78;2.00;;;;;;;;;;5115714;28;20036;-81
2022/09/05 00:40:15;;;;;;;4.80;2.15;;;;;;;;;;5115756;28;20034;-81
2022/09/05 00:42:41;;;;;;;5.30;2.42;;;;;;;;;;5115939;28;20020;-81
2022/09/05 00:45:09;;;;;;;9.52;2.30;;;;;;;;;;5115666;28;20077;-81
2022/09/05 00:47:57;;;;;;;4.32;1.95;;;;;;;;;;5115842;28;20354;-81
2022/09/05 00:50:40;;;;;;;5.70;1.95;;;;;;;;;;5115386;28;20100;-81
2022/09/05 00:53:10;;;;;;;5.72;1.90;;;;;;;;;;5115406;28;20043;-81
2022/09/05 00:55:40;;;;;;;7.40;2.10;;;;;;;;;;5115374;28;20072;-81
2022/09/05 00:58:18;;;;;;;5.00;2.72;;;;;;;;;;5115355;28;20094;-81
2022/09/05 01:00:44;;;;;;;9.00;2.20;;;;;;;;;;5115489;28;20039;-81
2022/09/05 01:03:29;;;;;;;5.03;1.95;;;;;;;;;;5098400;28;20183;-81
2022/09/05 01:06:13;;;;;;;4.32;2.03;;;;;;;;;;5095020;28;20020;-81
2022/09/05 01:08:39;;;;;;;5.18;2.00;;;;;;;;;;5094854;28;20035;-81
2022/09/05 01:11:05;;;;;;;5.78;2.40;;;;;;;;;;5094643;28;20048;-81
2022/09/05 01:13:40;;;;;;;5.35;1.83;;;;;;;;;;5094644;28;20104;-81
2022/09/05 01:16:06;;;;;;;2.72;1.90;;;;;;;;;;5094512;28;20056;-81
2022/09/05 01:18:57;;;;;;;4.13;1.67;;;;;;;;;;5094550;28;20437;-81
2022/09/05 01:21:48;;;;;;;2.70;2.00;;;;;;;;;;5094500;28;20023;-81
2022/09/05 01:24:17;;;;;;;8.20;2.10;;;;;;;;;;5094686;28;20020;-81
2022/09/05 01:26:46;;;;;;;4.68;2.00;;;;;;;;;;5094450;28;20419;-81
2022/09/05 01:29:18;;;;;;;6.10;2.20;;;;;;;;;;5094389;28;20028;-81
2022/09/05 01:32:02;;;;;;;8.38;2.53;;;;;;;;;;5094546;28;20035;-81
2022/09/05 01:34:54;;;;;;;3.88;2.00;;;;;;;;;;5094268;28;20477;-81
2022/09/05 01:37:44;;;;;;;3.95;1.90;;;;;;;;;;5094245;28;20020;-81
2022/09/05 01:40:23;;;;;;;5.18;2.80;;;;;;;;;;5085799;28;20606;-81
2022/09/05 01:43:08;;;;;;;7.80;2.65;;;;;;;;;;5114577;28;20027;-81
2022/09/05 01:45:48;;;;;;;5.05;2.45;;;;;;;;;;5114540;28;20075;-81
2022/09/05 01:48:33;;;;;;;5.03;2.20;;;;;;;;;;5114439;28;20487;-81
2022/09/05 01:51:12;;;;;;;4.47;2.28;;;;;;;;;;5096130;28;20330;-81
2022/09/05 01:53:42;;;;;;;2.72;2.00;;;;;;;;;;5114110;28;20088;-81
2022/09/05 01:56:24;;;;;;;7.60;2.15;;;;;;;;;;5114173;28;20028;-81
2022/09/05 01:58:56;;;;;;;3.33;2.20;;;;;;;;;;5114332;28;20023;-81
2022/09/05 02:01:31;;;;;;;7.13;2.28;;;;;;;;;;5114423;28;20027;-81
2022/09/05 02:04:09;;;;;;;6.90;2.67;;;;;;;;;;5114153;28;20157;-81
2022/09/05 02:07:02;;;;;;;5.55;2.10;;;;;;;;;;5114058;28;20489;-81
2022/09/05 02:09:39;;;;;;;4.07;2.40;;;;;;;;;;5109826;28;20032;-81
2022/09/05 02:12:09;;;;;;;4.28;2.33;;;;;;;;;;5113882;28;20144;-81
2022/09/05 02:14:38;;;;;;;6.13;2.85;;;;;;;;;;5113249;28;20043;-81
2022/09/05 02:17:20;;;;;;;6.07;2.50;;;;;;;;;;5113683;28;20470;-81
2022/09/05 02:19:51;;;;;;;3.63;2.40;;;;;;;;;;5106040;28;20028;-81
2022/09/05 02:22:20;;;;;;;5.67;2.80;;;;;;;;;;5093435;28;20110;-81
2022/09/05 02:24:48;;;;;;;5.78;3.00;;;;;;;;;;5093495;28;20023;-81
2022/09/05 02:27:17;;;;;;;3.78;2.60;;;;;;;;;;5093306;28;20462;-81
2022/09/05 02:29:48;;;;;;;5.93;2.67;;;;;;;;;;5093357;28;20133;-81
2022/09/05 02:32:20;;;;;;;3.83;2.55;;;;;;;;;;5093127;28;20381;-81
2022/09/05 02:34:57;;;;;;;7.28;3.22;;;;;;;;;;5093087;28;20024;-81
2022/09/05 02:37:41;;;;;;;5.85;3.10;;;;;;;;;;5093016;28;20039;-81
2022/09/05 02:40:17;;;;;;;6.95;3.40;;;;;;;;;;5093073;28;20016;-81
2022/09/05 02:43:01;;;;;;;7.18;3.53;;;;;;;;;;5092789;28;20501;-81
2022/09/05 02:45:46;;;;;;;8.77;3.10;;;;;;;;;;5092794;28;20137;-81
2022/09/05 02:48:30;;;;;;;9.73;3.00;;;;;;;;;;5092972;28;20031;-81
2022/09/05 02:51:13;;;;;;;8.82;3.03;;;;;;;;;;5074654;28;20024;-81
2022/09/05 02:53:42;;;;;;;11.32;4.40;;;;;;;;;;5092769;28;20028;-81
2022/09/05 02:56:23;;;;;;;5.63;3.55;;;;;;;;;;5092742;28;20020;-81
2022/09/05 02:59:21;;;;;;;12.07;3.33;;;;;;;;;;5092693;28;20077;-81
2022/09/05 03:02:06;;;;;;;6.75;3.13;;;;;;;;;;5042427;28;20097;-81
2022/09/05 03:04:34;;;;;;;14.10;3.03;;;;;;;;;;5113064;28;20481;-81
2022/09/05 03:07:03;;;;;;;11.20;3.50;;;;;;;;;;5113034;28;20072;-81
2022/09/05 03:09:49;;;;;;;6.90;3.28;;;;;;;;;;5112963;28;20035;-81
2022/09/05 03:12:21;;;;;;;11.73;3.50;;;;;;;;;;5094555;28;20055;-81
2022/09/05 03:15:01;;;;;;;5.97;3.10;;;;;;;;;;5112792;28;20030;-81
2022/09/05 03:17:46;;;;;;;5.55;2.78;;;;;;;;;;5113010;28;20505;-81
2022/09/05 03:20:26;;;;;;;10.85;2.75;;;;;;;;;;5112844;28;20027;-81
2022/09/05 03:22:55;;;;;;;7.97;2.95;;;;;;;;;;5112819;28;20470;-81
2022/09/05 03:25:40;;;;;;;7.93;3.00;;;;;;;;;;5111798;28;20027;-81
2022/09/05 03:28:09;;;;;;;4.63;2.95;;;;;;;;;;5112785;28;20529;-81
2022/09/05 03:30:38;;;;;;;5.18;2.70;;;;;;;;;;5112785;28;20567;-81
2022/09/05 03:33:23;;;;;;;4.47;2.72;;;;;;;;;;5112922;28;20034;-81
2022/09/05 03:36:08;;;;;;;6.70;3.03;;;;;;;;;;5112569;28;20488;-81
2022/09/05 03:39:03;;;;;;;4.82;2.80;;;;;;;;;;5112634;28;20357;-81
2022/09/05 03:41:43;;;;;;;4.05;2.80;;;;;;;;;;5007687;28;20042;-81
2022/09/05 03:44:28;;;;;;;5.10;2.80;;;;;;;;;;5092245;28;20020;-81
2022/09/05 03:47:03;;;;;;;6.03;3.30;;;;;;;;;;5092173;28;20024;-81
2022/09/05 03:49:29;;;;;;;4.53;3.08;;;;;;;;;;5092185;28;20129;-81
2022/09/05 03:52:14;;;;;;;4.78;2.72;;;;;;;;;;5092572;28;20106;-81
2022/09/05 03:54:43;;;;;;;5.10;3.40;;;;;;;;;;5092247;28;20038;-81
2022/09/05 03:57:15;;;;;;;6.10;3.15;;;;;;;;;;5091951;28;20093;-81
2022/09/05 04:00:03;;;;;;;3.25;2.83;;;;;;;;;;5092093;28;20071;-81
2022/09/05 04:02:31;;;;;;;5.97;3.72;;;;;;;;;;5092046;28;20492;-81
2022/09/05 04:05:11;;;;;;;6.47;3.40;;;;;;;;;;5073811;28;20095;-81
2022/09/05 04:07:49;;;;;;;7.60;3.40;;;;;;;;;;5091918;28;20020;-81
2022/09/05 04:10:22;;;;;;;5.93;3.17;;;;;;;;;;5091657;28;20442;-81
2022/09/05 04:13:09;;;;;;;4.75;3.35;;;;;;;;;;5092135;28;20089;-81
2022/09/05 04:15:35;;;;;;;9.30;3.38;;;;;;;;;;5041057;28;20036;-81
2022/09/05 04:18:02;;;;;;;4.85;3.05;;;;;;;;;;5091987;28;20016;-81
2022/09/05 04:21:00;;;;;;;9.35;3.38;;;;;;;;;;5105151;28;20020;-81
2022/09/05 04:23:29;;;;;;;6.88;3.53;;;;;;;;;;5092187;28;20036;-81
2022/09/05 04:26:06;;;;;;;7.32;3.22;;;;;;;;;;5112197;28;20028;-81
2022/09/05 04:28:32;;;;;;;10.35;3.60;;;;;;;;;;5111991;28;20020;-81
2022/09/05 04:31:08;;;;;;;8.05;3.90;;;;;;;;;;5112159;28;20329;-81
2022/09/05 04:33:37;;;;;;;9.80;3.55;;;;;;;;;;5112106;28;20533;-81
2022/09/05 04:36:17;;;;;;;8.13;3.53;;;;;;;;;;5111890;28;20410;-81
2022/09/05 04:38:44;;;;;;;7.68;3.30;;;;;;;;;;5115719;28;20346;-81
2022/09/05 04:41:20;;;;;;;10.13;3.80;;;;;;;;;;5115639;28;20019;-81
2022/09/05 04:43:53;;;;;;;11.73;3.60;;;;;;;;;;5115621;28;20385;-81
2022/09/05 04:46:27;;;;;;;9.45;4.43;;;;;;;;;;5115698;28;20024;-81
2022/09/05 04:48:56;;;;;;;6.53;3.78;;;;;;;;;;5115495;28;20062;-81
2022/09/05 04:51:41;;;;;;;11.18;4.30;;;;;;;;;;5115678;28;20023;-81
2022/09/05 04:54:25;;;;;;;7.70;3.80;;;;;;;;;;5115606;28;20027;-81
2022/09/05 04:56:54;;;;;;;8.35;3.83;;;;;;;;;;5115321;28;20813;-81
2022/09/05 04:59:25;;;;;;;6.90;4.10;;;;;;;;;;5115407;28;20072;-81
2022/09/05 05:01:53;;;;;;;7.45;4.00;;;;;;;;;;5109960;28;20020;-81
2022/09/05 05:04:21;;;;;;;7.88;4.20;;;;;;;;;;5094827;28;20420;-81
2022/09/05 05:06:47;;;;;;;7.82;4.70;;;;;;;;;;5094844;28;20024;-81
2022/09/05 05:09:14;;;;;;;9.43;4.30;;;;;;;;;;5094838;28;20095;-81
2022/09/05 05:11:46;;;;;;;11.55;4.68;;;;;;;;;;5094692;28;20082;-81
2022/09/05 05:14:20;;;;;;;11.10;4.68;;;;;;;;;;5094770;28;20028;-81
2022/09/05 05:16:56;;;;;;;9.98;5.03;;;;;;;;;;5094400;28;20439;-81
2022/09/05 05:19:31;;;;;;;14.80;5.20;;;;;;;;;;5094547;28;20090;-81
2022/09/05 05:21:59;;;;;;;11.82;4.10;;;;;;;;;;5094568;28;20020;-81
2022/09/05 05:24:30;;;;;;;11.23;5.10;;;;;;;;;;5094414;28;20062;-81
2022/09/05 05:27:11;;;;;;;14.15;4.95;;;;;;;;;;5094497;28;20038;-81
2022/09/05 05:29:42;;;;;;;13.00;4.93;;;;;;;;;;5094484;28;20020;-81
2022/09/05 05:32:08;;;;;;;10.73;5.35;;;;;;;;;;5094617;28;20028;-81
2022/09/05 05:34:36;;;;;;;16.58;5.03;;;;;;;;;;5094421;28;20028;-81
2022/09/05 05:37:05;;;;;;;10.90;4.75;;;;;;;;;;5094242;28;20477;-81
2022/09/05 05:39:32;;;;;;;11.30;4.80;;;;;;;;;;5094140;28;20028;-81
2022/09/05 05:42:01;;;;;;;7.88;4.40;;;;;;;;;;5113826;28;20028;-81
2022/09/05 05:44:32;;;;;;;10.30;4.43;;;;;;;;;;5114399;28;20024;-81
2022/09/05 05:47:00;;;;;;;20.52;5.18;;;;;;;;;;5114571;28;20020;-81
2022/09/05 05:49:44;;;;;;;18.55;5.18;;;;;;;;;;5113153;28;20027;-81
2022/09/05 05:52:19;;;;;;;13.98;5.07;;;;;;;;;;5114181;28;20027;-81
2022/09/05 05:55:04;;;;;;;15.23;5.38;;;;;;;;;;5114414;28;20023;-81
2022/09/05 05:57:42;;;;;;;12.20;5.00;;;;;;;;;;5114060;28;20024;-81
2022/09/05 06:00:18;;;;;;;16.80;5.28;;;;;;;;;;5114210;28;20024;-81
2022/09/05 06:03:03;;;;;;;16.23;5.50;;;;;;;;;;5114194;28;20445;-82
2022/09/05 06:05:48;;;;;;;16.38;4.93;;;;;;;;;;5114103;28;20378;-81
2022/09/05 06:08:14;;;;;;;14.63;5.97;;;;;;;;;;5114206;28;20031;-81
2022/09/05 06:10:45;;;;;;;11.55;5.18;;;;;;;;;;5113588;28;20100;-81
2022/09/05 06:13:31;;;;;;;11.48;5.95;;;;;;;;;;5114031;28;20035;-82
2022/09/05 06:16:15;;;;;;;14.20;5.85;;;;;;;;;;5113793;28;20117;-81
2022/09/05 06:19:11;;;;;;;14.10;5.72;;;;;;;;;;5114019;28;20515;-82
2022/09/05 06:21:40;;;;;;;15.13;5.50;;;;;;;;;;5021862;28;20106;-81
2022/09/05 06:24:23;;;;;;;14.05;5.97;;;;;;;;;;5093361;28;20026;-82
2022/09/05 06:27:00;;;;;;;11.60;5.75;;;;;;;;;;5093331;28;20055;-81
2022/09/05 06:29:35;;;;;;;12.63;5.63;;;;;;;;;;5093004;28;20032;-81
2022/09/05 06:32:20;;;;;;;22.75;6.25;;;;;;;;;;5074959;28;20039;-81
2022/09/05 06:35:05;;;;;;;12.95;6.50;;;;;;;;;;5074943;28;20499;-82
2022/09/05 06:37:38;;;;;;;14.95;5.50;;;;;;;;;;5093153;28;20154;-81
2022/09/05 06:40:04;;;;;;;12.55;6.15;;;;;;;;;;5093151;28;20083;-81
2022/09/05 06:42:49;;;;;;;12.95;6.03;;;;;;;;;;5093023;28;20021;-82
2022/09/05 06:45:29;;;;;;;13.63;5.43;;;;;;;;;;5093084;28;20024;-82
2022/09/05 06:47:59;;;;;;;8.82;5.30;;;;;;;;;;5093064;28;20070;-81
2022/09/05 06:50:30;;;;;;;10.73;5.88;;;;;;;;;;5092955;28;20070;-81
2022/09/05 06:53:14;;;;;;;19.02;6.85;;;;;;;;;;5092903;28;20032;-81
2022/09/05 06:55:55;;;;;;;15.25;6.50;;;;;;;;;;5074476;28;20024;-82
2022/09/05 06:58:51;;;;;;;10.50;5.72;;;;;;;;;;5092888;28;20068;-81
2022/09/05 07:01:25;;;;;;;17.23;6.13;;;;;;;;;;5093018;28;20028;-82
2022/09/05 07:04:00;;;;;;;15.38;7.38;;;;;;;;;;5112924;28;20081;-82
2022/09/05 07:06:31;;;;;;;13.32;6.72;;;;;;;;;;5112712;28;20027;-82
2022/09/05 07:09:02;;;;;;;15.57;6.00;;;;;;;;;;5112743;28;20027;-82
2022/09/05 07:11:51;;;;;;;12.95;6.18;;;;;;;;;;5112692;28;20047;-82
2022/09/05 07:14:49;;;;;;;13.15;5.68;;;;;;;;;;5112829;28;20024;-82
2022/09/05 07:17:19;;;;;;;12.65;5.30;;;;;;;;;;5057079;28;20058;-82
2022/09/05 07:19:48;;;;;;;18.55;5.43;;;;;;;;;;5112500;28;20048;-82
2022/09/05 07:22:14;;;;;;;27.35;5.60;;;;;;;;;;5112695;28;20058;-82
2022/09/05 07:24:43;;;;;;;13.70;5.75;;;;;;;;;;5112653;28;20034;-82
2022/09/05 07:27:11;;;;;;;11.15;5.10;;;;;;;;;;5112457;28;20103;-82
2022/09/05 07:29:42;;;;;;;10.35;5.13;;;;;;;;;;5112525;28;20027;-81
2022/09/05 07:32:09;;;;;;;15.02;5.97;;;;;;;;;;5112463;28;20065;-82
2022/09/05 07:34:37;;;;;;;9.30;4.35;;;;;;;;;;5112336;28;20438;-82
2022/09/05 07:37:07;;;;;;;8.18;4.70;;;;;;;;;;5094060;28;20090;-82
2022/09/05 07:39:38;;;;;;;18.30;4.72;;;;;;;;;;5112278;28;20036;-82
2022/09/05 07:42:06;;;;;;;23.70;4.43;;;;;;;;;;5112335;28;20045;-82
2022/09/05 07:44:34;;;;;;;15.02;4.43;;;;;;;;;;5112075;28;20016;-82
2022/09/05 07:47:14;;;;;;;14.27;3.60;;;;;;;;;;5112101;28;20028;-82
2022/09/05 07:49:41;;;;;;;10.68;3.35;;;;;;;;;;5112039;28;20423;-82
2022/09/05 07:52:18;;;;;;;8.40;3.05;;;;;;;;;;5112468;28;20116;-82
2022/09/05 07:54:45;;;;;;;12.98;3.58;;;;;;;;;;5112173;28;20386;-82
2022/09/05 07:57:16;;;;;;;8.18;2.83;;;;;;;;;;5112002;28;20093;-82
2022/09/05 07:59:42;;;;;;;6.18;2.80;;;;;;;;;;5112088;28;20022;-82
2022/09/05 08:02:09;;;;;;;8.75;2.50;;;;;;;;;;5112106;28;20034;-82
2022/09/05 08:04:38;;;;;;;7.40;2.83;;;;;;;;;;5111971;28;20024;-82
2022/09/05 08:07:24;;;;;;;8.50;2.55;;;;;;;;;;5112013;28;20299;-82
2022/09/05 08:09:52;;;;;;;8.00;2.92;;;;;;;;;;5111716;28;20016;-82
2022/09/05 08:12:22;;;;;;;9.25;2.40;;;;;;;;;;5113913;28;20043;-82
2022/09/05 08:15:07;;;;;;;6.68;1.88;;;;;;;;;;5116001;28;20020;-82
2022/09/05 08:17:38;;;;;;;12.32;2.00;;;;;;;;;;5115854;28;20466;-82
2022/09/05 08:20:23;;;;;;;10.27;2.00;;;;;;;;;;5116028;28;20024;-82
2022/09/05 08:22:54;;;;;;;3.83;1.98;;;;;;;;;;5115918;28;20019;-82
2022/09/05 08:25:24;;;;;;;5.40;2.17;;;;;;;;;;5116019;28;20094;-82
2022/09/05 08:27:55;;;;;;;5.70;2.20;;;;;;;;;;5115814;28;20027;-82
2022/09/05 08:30:22;;;;;;;17.02;3.47;;;;;;;;;;5115667;28;20035;-82
2022/09/05 08:33:09;;;;;;;4.07;2.00;;;;;;;;;;5115879;28;20050;-82
2022/09/05 08:35:42;;;;;;;11.40;1.90;;;;;;;;;;5115176;28;20031;-82
2022/09/05 08:38:09;;;;;;;7.35;1.60;;;;;;;;;;5097191;28;20391;-82
2022/09/05 08:40:41;;;;;;;6.07;1.90;;;;;;;;;;5115915;28;20019;-82
2022/09/05 08:43:16;;;;;;;7.07;2.00;;;;;;;;;;5115868;28;20020;-82
2022/09/05 08:45:51;;;;;;;5.18;1.77;;;;;;;;;;5115708;28;20341;-82
2022/09/05 08:48:36;;;;;;;31.40;3.50;;;;;;;;;;5115675;28;20024;-82
2022/09/05 08:51:08;;;;;;;4.43;1.92;;;;;;;;;;5115991;28;20024;-82
2022/09/05 08:53:34;;;;;;;;;;;;;;;;;;5097898;28;20408;-80
2022/09/05 08:56:21;;;;;;;6.88;2.03;;;;;;;;;;5115287;28;20010;-82
2022/09/05 08:58:47;;;;;;;4.82;1.70;;;;;;;;;;5115700;28;20834;-82
2022/09/05 09:01:13;;;;;;;7.40;2.10;;;;;;;;;;5115510;28;20035;-82
2022/09/05 09:03:42;;;;;;;11.38;2.13;;;;;;;;;;5095098;28;20031;-82
2022/09/05 09:06:21;;;;;;;6.10;1.88;;;;;;;;;;5095006;28;20024;-82
2022/09/05 09:08:47;;;;;;;3.47;1.60;;;;;;;;;;5094951;28;20028;-82
2022/09/05 09:11:27;;;;;;;3.20;1.80;;;;;;;;;;5076732;28;20043;-82
2022/09/05 09:14:16;;;;;;;6.72;2.25;;;;;;;;;;5094863;28;20028;-82
2022/09/05 09:16:51;;;;;;;11.85;2.03;;;;;;;;;;5094482;28;20039;-82
2022/09/05 09:19:35;;;;;;;5.18;1.80;;;;;;;;;;5094935;28;20454;-82
2022/09/05 09:22:01;;;;;;;6.70;2.10;;;;;;;;;;5094863;28;20027;-82
2022/09/05 09:24:42;;;;;;;7.95;2.10;;;;;;;;;;5094671;28;20342;-82
2022/09/05 09:27:15;;;;;;;7.10;1.70;;;;;;;;;;5076387;28;20467;-82
2022/09/05 09:29:42;;;;;;;4.20;1.80;;;;;;;;;;5094778;28;20046;-82
2022/09/05 09:32:13;;;;;;;4.50;1.92;;;;;;;;;;5094844;28;20445;-82
2022/09/05 09:34:45;;;;;;;4.45;1.77;;;;;;;;;;5094435;28;20366;-82
2022/09/05 09:37:14;;;;;;;3.55;1.27;;;;;;;;;;5094523;28;20035;-82
2022/09/05 09:39:53;;;;;;;2.88;1.67;;;;;;;;;;5094355;28;20028;-82
2022/09/05 09:42:31;;;;;;;7.90;1.60;;;;;;;;;;5094344;28;20028;-82
2022/09/05 09:45:00;;;;;;;3.72;1.88;;;;;;;;;;5094531;28;20024;-82
2022/09/05 09:47:45;;;;;;;6.60;1.60;;;;;;;;;;5094298;28;20024;-82
2022/09/05 09:50:11;;;;;;;4.93;2.08;;;;;;;;;;5094037;28;20024;-82
2022/09/05 09:52:57;;;;;;;3.78;1.83;;;;;;;;;;5094120;28;20028;-82
2022/09/05 09:55:23;;;;;;;10.50;1.67;;;;;;;;;;5093730;28;20060;-82
2022/09/05 09:58:08;;;;;;;5.65;1.80;;;;;;;;;;5094139;28;20050;-82
2022/09/05 10:00:50;;;;;;;9.43;1.92;;;;;;;;;;5093974;28;20099;-82
2022/09/05 10:03:28;;;;;;;6.65;1.88;;;;;;;;;;5094071;28;20127;-82
2022/09/05 10:06:17;;;;;;;4.70;1.70;;;;;;;;;;5093857;28;20020;-82
2022/09/05 10:08:56;;;;;;;2.92;1.55;;;;;;;;;;5080866;28;20032;-82
2022/09/05 10:11:22;;;;;;;3.08;1.50;;;;;;;;;;5093774;28;20046;-82
2022/09/05 10:13:51;;;;;;;4.15;1.50;;;;;;;;;;5094004;28;20021;-82
2022/09/05 10:16:17;;;;;;;2.85;1.30;;;;;;;;;;5093848;28;20434;-83
2022/09/05 10:18:49;;;;;;;3.03;1.50;;;;;;;;;;5093847;28;20024;-82
2022/09/05 10:21:18;;;;;;;2.75;1.40;;;;;;;;;;5113487;28;20058;-82
2022/09/05 10:24:03;;;;;;;2.53;1.30;;;;;;;;;;5114031;28;20107;-82
2022/09/05 10:26:32;;;;;;;4.82;1.38;;;;;;;;;;5113914;28;20026;-82
2022/09/05 10:28:58;;;;;;;2.00;1.10;;;;;;;;;;5113929;28;20030;-82
2022/09/05 10:31:42;;;;;;;2.70;1.00;;;;;;;;;;5113951;28;20023;-82
2022/09/05 10:34:08;;;;;;;1.58;0.80;;;;;;;;;;5113504;28;20055;-82
2022/09/05 10:36:37;;;;;;;2.97;1.00;;;;;;;;;;5113721;28;20074;-82
2022/09/05 10:39:12;;;;;;;2.15;1.30;;;;;;;;;;5113987;28;20023;-82
2022/09/05 10:41:42;;;;;;;5.78;1.17;;;;;;;;;;5113651;28;20365;-82
2022/09/05 10:44:08;;;;;;;3.42;1.10;;;;;;;;;;5113821;28;20028;-82
2022/09/05 10:46:35;;;;;;;2.75;0.80;;;;;;;;;;5113674;28;20477;-83
2022/09/05 10:49:04;;;;;;;2.55;1.00;;;;;;;;;;5113562;28;20851;-82
2022/09/05 10:51:45;;;;;;;2.67;0.93;;;;;;;;;;5113739;28;20365;-82
2022/09/05 10:54:29;;;;;;;1.92;0.90;;;;;;;;;;5113493;28;20027;-82
2022/09/05 10:57:22;;;;;;;3.17;1.00;;;;;;;;;;5113568;28;20028;-82
2022/09/05 10:59:55;;;;;;;2.08;1.00;;;;;;;;;;5075191;28;20393;-82
2022/09/05 11:02:22;;;;;;;1.85;1.00;;;;;;;;;;5103801;28;20024;-82
2022/09/05 11:04:50;;;;;;;6.60;1.10;;;;;;;;;;5092895;28;20043;-82
2022/09/05 11:07:35;;;;;;;1.05;0.75;;;;;;;;;;5092835;28;20085;-82
2022/09/05 11:10:03;;;;;;;5.15;1.00;;;;;;;;;;5092807;28;20024;-82
2022/09/05 11:12:46;;;;;;;6.32;0.93;;;;;;;;;;5092476;28;20040;-82
2022/09/05 11:15:33;;;;;;;1.70;0.98;;;;;;;;;;5092872;28;20121;-82
2022/09/05 11:18:09;;;;;;;3.38;0.90;;;;;;;;;;5092550;28;20034;-82
2022/09/05 11:20:37;;;;;;;3.30;0.98;;;;;;;;;;5092656;28;20405;-82
2022/09/05 11:23:08;;;;;;;1.27;0.80;;;;;;;;;;5092762;28;20105;-83
2022/09/05 11:25:35;;;;;;;2.33;1.00;;;;;;;;;;5092629;28;20331;-82
2022/09/05 11:28:09;;;;;;;2.28;1.00;;;;;;;;;;5092695;28;20095;-82
2022/09/05 11:30:39;;;;;;;3.63;0.85;;;;;;;;;;5074429;28;20017;-82
2022/09/05 11:33:17;;;;;;;3.33;1.00;;;;;;;;;;5092693;28;20027;-82
2022/09/05 11:35:55;;;;;;;3.33;1.10;;;;;;;;;;5092619;28;20074;-82
2022/09/05 11:38:35;;;;;;;7.75;2.47;;;;;;;;;;5092552;28;20412;-82
2022/09/05 11:41:03;;;;;;;9.13;1.10;;;;;;;;;;5104057;28;20058;-82
2022/09/05 11:43:48;;;;;;;9.90;1.10;;;;;;;;;;5112839;28;20016;-82
2022/09/05 11:46:52;;;;;;;2.72;1.00;;;;;;;;;;5113004;28;20030;-82
2022/09/05 11:49:39;;;;;;;2.47;1.00;;;;;;;;;;5014417;28;20103;-82
2022/09/05 11:52:05;;;;;;;1.85;0.80;;;;;;;;;;5014486;28;20038;-82
2022/09/05 11:54:37;;;;;;;1.92;1.00;;;;;;;;;;5077123;28;20140;-82
2022/09/05 11:57:03;;;;;;;;;;;;;;;;;;5117085;28;20023;-82
2022/09/05 11:59:42;;;;;;;2.85;1.20;;;;;;;;;;5116760;28;19904;-82
2022/09/05 12:02:31;;;;;;;3.28;1.10;;;;;;;;;;5116755;28;20034;-82
2022/09/05 12:05:16;;;;;;;2.88;1.15;;;;;;;;;;5116525;28;20026;-82
2022/09/05 12:07:56;;;;;;;2.10;0.98;;;;;;;;;;5116800;28;20028;-82
2022/09/05 12:10:39;;;;;;;3.20;0.93;;;;;;;;;;5116577;28;20153;-82
2022/09/05 12:13:18;;;;;;;3.70;1.00;;;;;;;;;;5098214;28;20074;-82
2022/09/05 12:15:45;;;;;;;1.85;1.10;;;;;;;;;;5116398;28;20104;-82
2022/09/05 12:18:15;;;;;;;3.75;1.00;;;;;;;;;;5116235;28;20020;-82
2022/09/05 12:20:44;;;;;;;2.67;0.90;;;;;;;;;;5101411;28;20060;-83
2022/09/05 12:23:28;;;;;;;1.75;0.90;;;;;;;;;;5095784;28;20387;-82
2022/09/05 12:25:56;;;;;;;6.22;0.82;;;;;;;;;;5095887;28;20020;-82
2022/09/05 12:28:42;;;;;;;4.05;0.90;;;;;;;;;;5096039;28;20445;-82
2022/09/05 12:31:11;;;;;;;2.42;1.00;;;;;;;;;;5095539;28;20070;-82
2022/09/05 12:33:37;;;;;;;4.68;1.10;;;;;;;;;;5095744;28;20024;-82
2022/09/05 12:36:10;;;;;;;3.58;1.00;;;;;;;;;;5095442;28;20123;-82
2022/09/05 12:38:42;;;;;;;2.80;1.00;;;;;;;;;;5095587;28;20024;-82
2022/09/05 12:41:14;;;;;;;3.97;1.10;;;;;;;;;;5095512;28;20038;-82
2022/09/05 12:44:07;;;;;;;3.63;1.08;;;;;;;;;;5095340;28;20024;-82
2022/09/05 12:46:55;;;;;;;2.88;0.93;;;;;;;;;;5095379;28;20095;-82
2022/09/05 12:49:24;;;;;;;6.55;1.08;;;;;;;;;;5095334;28;20047;-82
2022/09/05 12:51:58;;;;;;;5.00;0.90;;;;;;;;;;5095604;28;20031;-82
2022/09/05 12:54:26;;;;;;;20.20;2.45;;;;;;;;;;5095293;28;20113;-82
2022/09/05 12:56:59;;;;;;;5.18;1.02;;;;;;;;;;5095141;28;20336;-82
2022/09/05 12:59:26;;;;;;;8.82;1.67;;;;;;;;;;5095241;28;20528;-82
2022/09/05 13:02:02;;;;;;;4.10;1.00;;;;;;;;;;5095310;28;20020;-82
2022/09/05 13:04:31;;;;;;;1.92;0.77;;;;;;;;;;5095106;28;20040;-82
2022/09/05 13:06:59;;;;;;;1.67;0.70;;;;;;;;;;5076870;28;20032;-82
2022/09/05 13:09:34;;;;;;;2.05;0.77;;;;;;;;;;5095107;28;20020;-82
2022/09/05 13:12:10;;;;;;;1.52;0.88;;;;;;;;;;5094929;28;20036;-82
2022/09/05 13:14:57;;;;;;;2.92;0.80;;;;;;;;;;5094799;28;20094;-82
2022/09/05 13:17:29;;;;;;;5.50;1.00;;;;;;;;;;5076397;28;20054;-82
2022/09/05 13:19:57;;;;;;;7.82;1.00;;;;;;;;;;5094754;28;20016;-82
2022/09/05 13:22:23;;;;;;;5.28;1.02;;;;;;;;;;5094754;28;20122;-82
2022/09/05 13:25:03;;;;;;;3.55;0.90;;;;;;;;;;5094702;28;20470;-82
2022/09/05 13:27:30;;;;;;;4.45;0.98;;;;;;;;;;5094983;28;20024;-82
2022/09/05 13:30:01;;;;;;;1.88;0.90;;;;;;;;;;5094527;28;20024;-82
2022/09/05 13:32:30;;;;;;;2.33;0.98;;;;;;;;;;5094826;28;20028;-81
2022/09/05 13:35:03;;;;;;;3.08;0.90;;;;;;;;;;5093831;28;20039;-80
2022/09/05 13:37:33;;;;;;;3.22;0.80;;;;;;;;;;5093753;28;20031;-78
2022/09/05 13:40:08;;;;;;;7.18;1.17;;;;;;;;;;5093633;28;20042;-80
2022/09/05 13:42:38;;;;;;;1.75;1.02;;;;;;;;;;5093688;28;20024;-80
2022/09/05 13:45:04;;;;;;;1.02;0.80;;;;;;;;;;5093876;28;20087;-80
2022/09/05 13:47:43;;;;;;;6.05;0.90;;;;;;;;;;5093606;28;20385;-79
2022/09/05 13:50:24;;;;;;;0.88;0.70;;;;;;;;;;5093550;28;20028;-79
2022/09/05 13:52:56;;;;;;;9.02;1.20;;;;;;;;;;5107604;28;20028;-79
2022/09/05 13:55:36;;;;;;;2.70;1.00;;;;;;;;;;5095474;28;20019;-79
2022/09/05 13:58:09;;;;;;;1.73;0.80;;;;;;;;;;5113795;28;20024;-79
2022/09/05 14:00:37;;;;;;;3.42;0.90;;;;;;;;;;5113885;28;20015;-79
2022/09/05 14:03:12;;;;;;;3.45;1.02;;;;;;;;;;5113881;28;20020;-79
2022/09/05 14:05:47;;;;;;;1.60;1.13;;;;;;;;;;5113620;28;20023;-79
2022/09/05 14:08:23;;;;;;;2.10;0.98;;;;;;;;;;5113703;28;20046;-79
2022/09/05 14:11:07;;;;;;;3.88;1.05;;;;;;;;;;5091082;28;20127;-79
2022/09/05 14:13:51;;;;;;;3.28;0.70;;;;;;;;;;5093082;28;20019;-79
2022/09/05 14:16:26;;;;;;;4.57;0.85;;;;;;;;;;5093122;28;20032;-79
2022/09/05 14:21:38;;;;;;;4.88;1.15;;;;;;;;;;5073094;28;20047;-79
2022/09/05 14:24:04;;;;;;;4.28;1.15;;;;;;;;;;5072561;28;20028;-79
2022/09/05 14:26:37;;;;;;;6.75;1.20;;;;;;;;;;5072516;28;20390;-79
2022/09/05 14:29:12;;;;;;;5.40;1.38;;;;;;;;;;5072204;28;20390;-79
2022/09/05 14:31:50;;;;;;;113.57;6.10;;;;;;;;;;5054278;28;20106;-79
2022/09/05 14:34:33;;;;;;;35.65;2.78;;;;;;;;;;5072563;28;20103;-79
2022/09/05 14:37:02;;;;;;;13.50;1.58;;;;;;;;;;5072352;28;20111;-79
2022/09/05 14:39:28;;;;;;;8.98;1.40;;;;;;;;;;5072391;28;20016;-79
2022/09/05 14:42:09;;;;;;;3.03;1.10;;;;;;;;;;5072278;28;20024;-79
2022/09/05 14:44:46;;;;;;;4.50;1.20;;;;;;;;;;5072580;28;20016;-79
2022/09/05 14:47:30;;;;;;;2.28;1.00;;;;;;;;;;5072268;28;20025;-79
2022/09/05 14:50:15;;;;;;;6.03;1.20;;;;;;;;;;5072231;28;20175;-79
2022/09/05 14:52:57;;;;;;;8.27;2.17;;;;;;;;;;5091501;28;20504;-79
2022/09/05 14:55:23;;;;;;;1.55;0.88;;;;;;;;;;5112756;28;20048;-79
2022/09/05 14:57:50;;;;;;;3.25;1.00;;;;;;;;;;5112449;28;20067;-79
2022/09/05 15:00:19;;;;;;;2.10;0.90;;;;;;;;;;5094246;28;20027;-79
2022/09/05 15:02:47;;;;;;;2.95;1.00;;;;;;;;;;5068554;28;20052;-79
2022/09/05 15:05:13;;;;;;;10.07;1.15;;;;;;;;;;5071849;28;20024;-79
2022/09/05 15:07:41;;;;;;;4.30;1.20;;;;;;;;;;5071969;28;20078;-79
2022/09/05 15:10:07;;;;;;;3.33;0.95;;;;;;;;;;5071854;28;20390;-79
2022/09/05 15:12:34;;;;;;;2.50;1.08;;;;;;;;;;5089270;28;20431;-79
2022/09/05 15:15:03;;;;;;;8.52;1.05;;;;;;;;;;5092089;28;20024;-79
2022/09/05 15:17:30;;;;;;;6.32;1.20;;;;;;;;;;5092062;28;20417;-79
2022/09/05 15:20:02;;;;;;;10.13;1.30;;;;;;;;;;5091884;28;20035;-79
2022/09/05 15:22:30;;;;;;;5.68;1.30;;;;;;;;;;5091921;28;20016;-79
2022/09/05 15:25:00;;;;;;;3.10;1.20;;;;;;;;;;5092132;28;20486;-79
2022/09/05 15:27:28;;;;;;;5.85;1.10;;;;;;;;;;5092086;28;20470;-79
2022/09/05 15:29:55;;;;;;;7.68;1.20;;;;;;;;;;5091859;28;20474;-79